Flight Track Log - Related Links

Times and Time Zones

All times are in EDT time to prevent confusion due to time zone crossing. See the ACA831 flight status page for this flight to view local times or setup timezone preferences in your user account.

Time Position Orientation Groundspeed Altitude Reporting Facility
EDT Latitude Longitude Course Direction KTS MPH feet Rate Location/Type
Fri 04:29:57 PM 45.4730 -73.7210 180° South 88 101  Level FlightAware ADS-B
Fri 04:30:17 PM 45.4640 -73.7330 223° Southwest 170 196 1,050 Level FlightAware ADS-B
Fri 04:30:37 PM 45.4530 -73.7470 222° Southwest 177 204 700 2,739 Climbing FlightAware ADS-B
Fri 04:31:03 PM 45.4380 -73.7670 223° Southwest 163 188 2,100 3,200 Climbing FlightAware ADS-B
Fri 04:31:22 PM 45.4250 -73.7820 219° Southwest 172 198 3,100 2,154 Climbing FlightAware ADS-B
Fri 04:31:42 PM 45.4120 -73.7990 223° Southwest 198 228 3,500 1,317 Climbing FlightAware ADS-B
Fri 04:32:03 PM 45.3960 -73.8180 220° Southwest 239 275 4,000 2,100 Climbing FlightAware ADS-B
Fri 04:32:22 PM 45.3790 -73.8400 222° Southwest 256 295 4,900 3,000 Climbing FlightAware ADS-B
Fri 04:32:37 PM 45.3640 -73.8570 219° Southwest 260 299 5,700 2,057 Climbing FlightAware ADS-B
Fri 04:32:57 PM 45.3450 -73.8810 222° Southwest 282 325 6,100 1,200 Climbing FlightAware ADS-B
Fri 04:33:12 PM 45.3300 -73.8990 220° Southwest 281 323 6,400 1,000 Climbing FlightAware ADS-B
Fri 04:33:27 PM 45.3160 -73.9200 227° Southwest 285 328 6,600 960 Climbing FlightAware ADS-B
Fri 04:33:37 PM 45.3110 -73.9370 247° West 285 328 6,800 1,200 Climbing FlightAware ADS-B
Fri 04:33:42 PM 45.3100 -73.9460 261° West 286 329 6,900  Climbing FlightAware ADS-B
Fri 04:34:06 PM 45.3180 -73.9890 285° West 272 313 6,800 -214 Descending FlightAware ADS-B
Fri 04:34:10 PM 45.3210 -73.9950 305° West 270 311 6,800 300 Level FlightAware ADS-B
Fri 04:34:26 PM 45.3350 -74.0150 315° West 271 312 6,900 1,167 Climbing FlightAware ADS-B
Fri 04:34:46 PM 45.3520 -74.0420 312° West 272 313 7,500 2,550 Climbing FlightAware ADS-B
Fri 04:35:06 PM 45.3680 -74.0670 312° West 276 318 8,600 3,450 Climbing FlightAware ADS-B
Fri 04:35:26 PM 45.3870 -74.0960 313° West 281 323 9,800 2,667 Climbing FlightAware ADS-B
Fri 04:36:00 PM 45.4190 -74.1440 314° West 316 364 11,000 1,846 Climbing FlightAware ADS-B
Fri 04:36:18 PM 45.4340 -74.1710 308° West 338 389 11,400 1,385 Climbing FlightAware ADS-B
Fri 04:36:26 PM 45.4390 -74.1920 289° West 357 411 11,600 1,500 Climbing FlightAware ADS-B
Fri 04:36:38 PM 45.4420 -74.2200 279° West 374 430 11,900 2,625 Climbing FlightAware ADS-B
Fri 04:37:14 PM 45.4320 -74.3120 261° West 395 455 13,700 3,083 Climbing FlightAware ADS-B
Fri 04:37:50 PM 45.4190 -74.4070 259° West 408 470 15,600 3,176 Climbing FlightAware ADS-B
Fri 04:38:22 PM 45.4070 -74.4910 259° West 416 479 17,300 3,176 Climbing FlightAware ADS-B
Fri 04:38:58 PM 45.3900 -74.5880 256° West 423 487 19,200 3,041 Climbing FlightAware ADS-B
Fri 04:39:35 PM 45.3730 -74.6860 256° West 425 489 21,000 2,912 Climbing FlightAware ADS-B
Fri 04:40:06 PM 45.3590 -74.7720 257° West 429 494 22,500 2,595 Climbing FlightAware ADS-B
Fri 04:40:49 PM 45.3400 -74.8860 257° West 435 501 24,200 2,308 Climbing FlightAware ADS-B
Fri 04:41:24 PM 45.3220 -74.9870 256° West 442 509 25,500 2,057 Climbing FlightAware ADS-B
Fri 04:41:59 PM 45.3050 -75.0870 256° West 452 520 26,600 1,971 Climbing FlightAware ADS-B
Fri 04:42:34 PM 45.2880 -75.1880 257° West 461 531 27,800 2,400 Climbing FlightAware ADS-B
Fri 04:43:09 PM 45.2700 -75.2900 256° West 453 521 29,400 2,657 Climbing FlightAware ADS-B
Fri 04:43:44 PM 45.2520 -75.3890 256° West 445 512 30,900 2,316 Climbing FlightAware ADS-B
Fri 04:44:06 PM 45.2420 -75.4460 256° West 443 510 31,600 2,031 Climbing FlightAware ADS-B
Fri 04:44:49 PM 45.2200 -75.5740 256° West 440 506 33,100 1,865 Climbing FlightAware ADS-B
Fri 04:45:20 PM 45.2040 -75.6590 255° West 437 503 33,900 794 Climbing FlightAware ADS-B
Fri 04:45:57 PM 45.1860 -75.7630 256° West 437 503 34,000 88 Climbing FlightAware ADS-B
Fri 04:46:28 PM 45.1700 -75.8490 255° West 438 504 34,000  Level FlightAware ADS-B
Fri 04:47:13 PM 45.1480 -75.9730 256° West 441 507 34,000  Level FlightAware ADS-B
Fri 04:47:48 PM 45.1310 -76.0660 256° West 441 507 34,000  Level FlightAware ADS-B
Fri 04:48:25 PM 45.1120 -76.1680 255° West 442 509 34,000  Level FlightAware ADS-B
Fri 04:49:07 PM 45.0780 -76.2870 248° West 448 516 34,000  Level FlightAware ADS-B
Fri 04:49:38 PM 45.0480 -76.3650 241° Southwest 450 518 34,000  Level FlightAware ADS-B
Fri 04:50:15 PM 45.0110 -76.4590 241° Southwest 452 520 34,000  Level FlightAware ADS-B
Fri 04:50:51 PM 44.9770 -76.5450 241° Southwest 452 520 34,000  Level FlightAware ADS-B
Fri 04:51:25 PM 44.9380 -76.6400 240° Southwest 453 521 34,000  Level FlightAware ADS-B
Fri 04:52:00 PM 44.9020 -76.7320 241° Southwest 453 521 34,000  Level FlightAware ADS-B
Fri 04:52:35 PM 44.8660 -76.8210 240° Southwest 454 522 34,000  Level FlightAware ADS-B
Fri 04:53:10 PM 44.8300 -76.9100 240° Southwest 455 524 34,000  Level FlightAware ADS-B
Fri 04:53:45 PM 44.7950 -76.9980 241° Southwest 456 525 34,000  Level FlightAware ADS-B
Fri 04:54:20 PM 44.7590 -77.0860 240° Southwest 455 524 34,000  Level FlightAware ADS-B
Fri 04:54:55 PM 44.7230 -77.1770 241° Southwest 456 525 34,000  Level FlightAware ADS-B
Fri 04:55:30 PM 44.6840 -77.2720 240° Southwest 456 525 34,000  Level FlightAware ADS-B
Fri 04:56:09 PM 44.6410 -77.3770 240° Southwest 456 525 34,000  Level FlightAware ADS-B
Fri 04:56:39 PM 44.6110 -77.4520 241° Southwest 456 525 34,000  Level FlightAware ADS-B
Fri 04:57:17 PM 44.5700 -77.5510 240° Southwest 458 527 34,000 -81 Level FlightAware ADS-B
Fri 04:57:53 PM 44.5310 -77.6440 240° Southwest 457 526 33,900 -667 Descending FlightAware ADS-B
Fri 04:58:29 PM 44.4950 -77.7330 240° Southwest 460 529 33,200 -1,280 Descending FlightAware ADS-B
Fri 04:59:08 PM 44.4520 -77.8370 240° Southwest 463 533 32,300 -1,622 Descending FlightAware ADS-B
Fri 04:59:43 PM 44.4150 -77.9240 239° Southwest 459 528 31,200 -2,080 Descending FlightAware ADS-B
Fri 05:00:23 PM 44.3720 -78.0270 240° Southwest 448 516 29,700 -2,175 Descending FlightAware ADS-B
Fri 05:01:03 PM 44.3310 -78.1250 240° Southwest 438 504 28,300 -2,132 Descending FlightAware ADS-B
Fri 05:01:39 PM 44.2960 -78.2100 240° Southwest 431 496 27,000 -2,091 Descending FlightAware ADS-B
Fri 05:02:09 PM 44.2680 -78.2760 239° Southwest 422 486 26,000 -2,182 Descending FlightAware ADS-B
Fri 05:02:45 PM 44.2310 -78.3630 239° Southwest 415 478 24,600 -2,197 Descending FlightAware ADS-B
Fri 05:03:20 PM 44.1970 -78.4420 239° Southwest 408 470 23,400 -2,143 Descending FlightAware ADS-B
Fri 05:03:55 PM 44.1640 -78.5210 240° Southwest 403 464 22,100 -2,143 Descending FlightAware ADS-B
Fri 05:04:30 PM 44.1310 -78.5970 239° Southwest 396 456 20,900 -2,057 Descending FlightAware ADS-B
Fri 05:05:05 PM 44.0980 -78.6740 239° Southwest 392 451 19,700 -2,057 Descending FlightAware ADS-B
Fri 05:05:40 PM 44.0670 -78.7470 239° Southwest 388 447 18,500 -2,057 Descending FlightAware ADS-B
Fri 05:06:15 PM 44.0340 -78.8240 239° Southwest 392 451 17,300 -1,457 Descending FlightAware ADS-B
Fri 05:06:50 PM 44.0000 -78.8970 237° Southwest 386 444 16,800 -771 Descending FlightAware ADS-B
Fri 05:07:25 PM 43.9660 -78.9710 237° Southwest 380 437 16,400 -514 Descending FlightAware ADS-B
Fri 05:08:00 PM 43.9340 -79.0410 238° Southwest 375 432 16,200 -779 Descending FlightAware ADS-B
Fri 05:08:42 PM 43.8970 -79.1210 237° Southwest 365 420 15,400 -1,425 Descending FlightAware ADS-B
Fri 05:09:20 PM 43.8630 -79.1960 238° Southwest 356 410 14,300 -1,765 Descending FlightAware ADS-B
Fri 05:09:50 PM 43.8360 -79.2530 237° Southwest 327 376 13,400 -1,636 Descending FlightAware ADS-B
Fri 05:10:26 PM 43.8090 -79.3120 238° Southwest 315 362 12,500 -1,520 Descending FlightAware ADS-B
Fri 05:11:05 PM 43.7840 -79.3840 244° Southwest 305 351 11,500 -1,378 Descending FlightAware ADS-B
Fri 05:11:40 PM 43.7770 -79.4500 262° West 278 320 10,800 -1,364 Descending FlightAware ADS-B
Fri 05:12:11 PM 43.7720 -79.5010 262° West 264 304 10,000 -1,475 Descending FlightAware ADS-B
Fri 05:12:41 PM 43.7670 -79.5490 262° West 260 299 9,300 -1,469 Descending FlightAware ADS-B
Fri 05:13:00 PM 43.7640 -79.5830 263° West 259 298 8,800 -882 Descending FlightAware ADS-B
Fri 05:13:15 PM 43.7610 -79.6080 261° West 254 292 8,800  Level FlightAware ADS-B
Fri 05:13:35 PM 43.7580 -79.6400 263° West 254 292 8,800  Level FlightAware ADS-B
Fri 05:13:55 PM 43.7550 -79.6700 262° West 256 295 8,800  Level FlightAware ADS-B
Fri 05:14:15 PM 43.7510 -79.7040 261° West 258 297 8,800  Level FlightAware ADS-B
Fri 05:14:25 PM 43.7470 -79.7200 251° West 260 299 8,800  Level FlightAware ADS-B
Fri 05:14:35 PM 43.7420 -79.7320 240° Southwest 263 303 8,800  Level FlightAware ADS-B
Fri 05:14:45 PM 43.7320 -79.7460 225° Southwest 262 302 8,800 -600 Level FlightAware ADS-B
Fri 05:15:05 PM 43.7170 -79.7680 227° Southwest 264 304 8,500 -933 Descending FlightAware ADS-B
Fri 05:15:30 PM 43.6950 -79.8010 227° Southwest 262 302 8,100 -1,067 Descending FlightAware ADS-B
Fri 05:15:50 PM 43.6780 -79.8250 226° Southwest 253 291 7,700 -1,029 Descending FlightAware ADS-B
Fri 05:16:05 PM 43.6660 -79.8420 226° Southwest 241 277 7,500 -1,200 Descending FlightAware ADS-B
Fri 05:16:35 PM 43.6440 -79.8740 226° Southwest 227 261 6,800 -1,467 Descending FlightAware ADS-B
Fri 05:16:50 PM 43.6340 -79.8890 227° Southwest 224 258 6,400 -1,579 Descending FlightAware ADS-B
Fri 05:17:13 PM 43.6190 -79.9100 225° Southwest 223 257 5,800 -1,667 Descending FlightAware ADS-B
Fri 05:17:26 PM 43.6080 -79.9250 225° Southwest 221 254 5,400 -1,622 Descending FlightAware ADS-B
Fri 05:17:50 PM 43.5910 -79.9510 228° Southwest 220 253 4,800 -1,231 Descending FlightAware ADS-B
Fri 05:18:05 PM 43.5820 -79.9640 226° Southwest 219 252 4,600 -960 Descending FlightAware ADS-B
Fri 05:18:15 PM 43.5720 -79.9710 207° Southwest 217 250 4,400 -800 Descending FlightAware ADS-B
Fri 05:18:20 PM 43.5670 -79.9720 188° South 213 245 4,400 -600 Level FlightAware ADS-B
Fri 05:18:45 PM 43.5440 -79.9670 171° South 195 224 4,100 -800 Descending FlightAware ADS-B
Fri 05:18:50 PM 43.5390 -79.9650 164° South 191 220 4,000 -1,200 Descending FlightAware ADS-B
Fri 05:18:55 PM 43.5340 -79.9610 150° Southeast 189 217 3,900 -800 Descending FlightAware ADS-B
Fri 05:19:05 PM 43.5300 -79.9540 128° Southeast 181 208 3,800 -300 Descending FlightAware ADS-B
Fri 05:19:15 PM 43.5280 -79.9420 103° East 181 208 3,800  Level FlightAware ADS-B
Fri 05:19:35 PM 43.5300 -79.9190 83° East 183 211 3,800  Level FlightAware ADS-B
Fri 05:19:45 PM 43.5310 -79.9080 83° East 182 209 3,800  Level FlightAware ADS-B
Fri 05:20:15 PM 43.5360 -79.8740 79° East 179 206 3,800  Level FlightAware ADS-B
Fri 05:20:35 PM 43.5440 -79.8550 60° Northeast 178 205 3,800 -133 Level FlightAware ADS-B
Fri 05:21:00 PM 43.5560 -79.8350 50° Northeast 175 201 3,700 -667 Descending FlightAware ADS-B
Fri 05:21:20 PM 43.5680 -79.8170 47° Northeast 174 200 3,300 -1,029 Descending FlightAware ADS-B
Fri 05:21:35 PM 43.5760 -79.8060 45° Northeast 173 199 3,100 -900 Descending FlightAware ADS-B
Fri 05:22:00 PM 43.5910 -79.7850 45° Northeast 171 197 2,700 -900 Descending FlightAware ADS-B
Fri 05:22:15 PM 43.5990 -79.7740 45° Northeast 173 199 2,500 -857 Descending FlightAware ADS-B
Fri 05:22:35 PM 43.6100 -79.7570 48° Northeast 170 196 2,200 -857 Descending FlightAware ADS-B
Fri 05:22:50 PM 43.6180 -79.7460 45° Northeast 170 196 2,000 -857 Descending FlightAware ADS-B
Fri 05:23:10 PM 43.6290 -79.7300 46° Northeast 163 188 1,700 -900 Descending FlightAware ADS-B
Fri 05:23:30 PM 43.6380 -79.7160 48° Northeast 157 181 1,400 -857 Descending FlightAware ADS-B
Fri 05:23:45 PM 43.6460 -79.7050 45° Northeast 150 173 1,200 -800 Descending FlightAware ADS-B
Fri 05:24:15 PM 43.6600 -79.6850 46° Northeast 147 169 800 -720 Descending FlightAware ADS-B
Fri 05:24:35 PM 43.6690 -79.6710 48° Northeast 148 170 600 -250 Descending FlightAware ADS-B
Fri 05:25:03 PM 43.6800 -79.6550 46° Northeast 148 170 600  Level FlightAware ADS-B

Login

Don't have an account? Register now (free) for customized features, flight alerts, and more!